<?xml version="1.0" encoding="UTF-8" standalone="no" ?>
<gpx xmlns="http://www.topografix.com/GPX/1/1" xmlns:xsi="http://www.w3.org/2001/XMLSchema-instance" xsi:schemaLocation="http://www.topografix.com/GPX/1/1 http://www.topografix.com/GPX/1/1/gpx.xsd" version="1.1" creator="VisuGPX - https://www.visugpx.com">
  <metadata>
    <name>Trail des Monts de gy 2011 - 10 km</name>
    <desc><![CDATA[                                                                                                                                                                                                                   ]]></desc>
  </metadata>
  <trk>
    <name><![CDATA[Trail des Monts de Gy - 2010 10 km]]></name>
    <trkseg>
      <trkpt lat="47.4067" lon="5.81488">
        <ele>221.7211914</ele>
        <time>2009-10-27T14:21:05Z</time>
      </trkpt>
      <trkpt lat="47.40656" lon="5.81442">
        <ele>220.2791748</ele>
        <time>2009-10-27T14:21:16Z</time>
      </trkpt>
      <trkpt lat="47.4062" lon="5.81345">
        <ele>218.8372803</ele>
        <time>2009-10-27T14:21:26Z</time>
      </trkpt>
      <trkpt lat="47.40554" lon="5.81211">
        <ele>216.43396</ele>
        <time>2009-10-27T14:21:38Z</time>
      </trkpt>
      <trkpt lat="47.40507" lon="5.81099">
        <ele>214.9919434</ele>
        <time>2009-10-27T14:21:47Z</time>
      </trkpt>
      <trkpt lat="47.40477" lon="5.81056">
        <ele>217.8759766</ele>
        <time>2009-10-27T14:21:53Z</time>
      </trkpt>
      <trkpt lat="47.40458" lon="5.81026">
        <ele>219.798584</ele>
        <time>2009-10-27T14:21:57Z</time>
      </trkpt>
      <trkpt lat="47.40425" lon="5.80967">
        <ele>222.2017822</ele>
        <time>2009-10-27T14:22:04Z</time>
      </trkpt>
      <trkpt lat="47.4036" lon="5.80857">
        <ele>221.2406006</ele>
        <time>2009-10-27T14:22:16Z</time>
      </trkpt>
      <trkpt lat="47.40302" lon="5.80762">
        <ele>224.6052246</ele>
        <time>2009-10-27T14:22:27Z</time>
      </trkpt>
      <trkpt lat="47.40262" lon="5.80694">
        <ele>227.4891357</ele>
        <time>2009-10-27T14:22:37Z</time>
      </trkpt>
      <trkpt lat="47.40253" lon="5.80677">
        <ele>228.9311523</ele>
        <time>2009-10-27T14:22:40Z</time>
      </trkpt>
      <trkpt lat="47.4022" lon="5.80618">
        <ele>231.8149414</ele>
        <time>2009-10-27T14:22:51Z</time>
      </trkpt>
      <trkpt lat="47.40188" lon="5.80573">
        <ele>234.2183838</ele>
        <time>2009-10-27T14:23:01Z</time>
      </trkpt>
      <trkpt lat="47.4016" lon="5.80549">
        <ele>237.1022949</ele>
        <time>2009-10-27T14:23:10Z</time>
      </trkpt>
      <trkpt lat="47.40133" lon="5.80535">
        <ele>239.9862061</ele>
        <time>2009-10-27T14:23:20Z</time>
      </trkpt>
      <trkpt lat="47.40098" lon="5.80513">
        <ele>243.3508301</ele>
        <time>2009-10-27T14:23:31Z</time>
      </trkpt>
      <trkpt lat="47.40061" lon="5.80479">
        <ele>243.3508301</ele>
        <time>2009-10-27T14:23:42Z</time>
      </trkpt>
      <trkpt lat="47.40011" lon="5.80431">
        <ele>239.9862061</ele>
        <time>2009-10-27T14:23:53Z</time>
      </trkpt>
      <trkpt lat="47.39941" lon="5.8036">
        <ele>238.5443115</ele>
        <time>2009-10-27T14:24:03Z</time>
      </trkpt>
      <trkpt lat="47.39934" lon="5.80353">
        <ele>238.5443115</ele>
        <time>2009-10-27T14:24:04Z</time>
      </trkpt>
      <trkpt lat="47.39868" lon="5.80269">
        <ele>239.0249023</ele>
        <time>2009-10-27T14:24:16Z</time>
      </trkpt>
      <trkpt lat="47.39793" lon="5.80187">
        <ele>238.0635986</ele>
        <time>2009-10-27T14:24:29Z</time>
      </trkpt>
      <trkpt lat="47.39715" lon="5.80114">
        <ele>235.6602783</ele>
        <time>2009-10-27T14:24:41Z</time>
      </trkpt>
      <trkpt lat="47.39636" lon="5.80045">
        <ele>234.2183838</ele>
        <time>2009-10-27T14:24:53Z</time>
      </trkpt>
      <trkpt lat="47.3959" lon="5.80002">
        <ele>231.8149414</ele>
        <time>2009-10-27T14:25:00Z</time>
      </trkpt>
      <trkpt lat="47.39512" lon="5.79914">
        <ele>228.9311523</ele>
        <time>2009-10-27T14:25:11Z</time>
      </trkpt>
      <trkpt lat="47.39437" lon="5.79826">
        <ele>228.9311523</ele>
        <time>2009-10-27T14:25:23Z</time>
      </trkpt>
      <trkpt lat="47.39397" lon="5.79782">
        <ele>232.2957764</ele>
        <time>2009-10-27T14:25:31Z</time>
      </trkpt>
      <trkpt lat="47.39343" lon="5.79709">
        <ele>235.1796875</ele>
        <time>2009-10-27T14:25:44Z</time>
      </trkpt>
      <trkpt lat="47.39308" lon="5.79656">
        <ele>236.6217041</ele>
        <time>2009-10-27T14:25:54Z</time>
      </trkpt>
      <trkpt lat="47.39257" lon="5.79579">
        <ele>235.6602783</ele>
        <time>2009-10-27T14:26:06Z</time>
      </trkpt>
      <trkpt lat="47.39202" lon="5.79506">
        <ele>232.2957764</ele>
        <time>2009-10-27T14:26:16Z</time>
      </trkpt>
      <trkpt lat="47.39155" lon="5.79421">
        <ele>228.9311523</ele>
        <time>2009-10-27T14:26:25Z</time>
      </trkpt>
      <trkpt lat="47.39125" lon="5.79302">
        <ele>225.5665283</ele>
        <time>2009-10-27T14:26:36Z</time>
      </trkpt>
      <trkpt lat="47.39119" lon="5.7928">
        <ele>225.0859375</ele>
        <time>2009-10-27T14:26:38Z</time>
      </trkpt>
      <trkpt lat="47.39111" lon="5.79261">
        <ele>224.1245117</ele>
        <time>2009-10-27T14:26:40Z</time>
      </trkpt>
      <trkpt lat="47.39099" lon="5.79246">
        <ele>222.2017822</ele>
        <time>2009-10-27T14:26:42Z</time>
      </trkpt>
      <trkpt lat="47.39017" lon="5.79136">
        <ele>219.3179932</ele>
        <time>2009-10-27T14:26:53Z</time>
      </trkpt>
      <trkpt lat="47.39011" lon="5.79127">
        <ele>219.3179932</ele>
        <time>2009-10-27T14:26:54Z</time>
      </trkpt>
      <trkpt lat="47.38953" lon="5.79051">
        <ele>219.798584</ele>
        <time>2009-10-27T14:27:04Z</time>
      </trkpt>
      <trkpt lat="47.38934" lon="5.79025">
        <ele>220.7598877</ele>
        <time>2009-10-27T14:27:08Z</time>
      </trkpt>
      <trkpt lat="47.38923" lon="5.79034">
        <ele>219.798584</ele>
        <time>2009-10-27T14:27:13Z</time>
      </trkpt>
      <trkpt lat="47.38893" lon="5.79099">
        <ele>222.6824951</ele>
        <time>2009-10-27T14:27:22Z</time>
      </trkpt>
      <trkpt lat="47.38886" lon="5.79115">
        <ele>223.6437988</ele>
        <time>2009-10-27T14:27:25Z</time>
      </trkpt>
      <trkpt lat="47.3887" lon="5.79145">
        <ele>224.1245117</ele>
        <time>2009-10-27T14:27:31Z</time>
      </trkpt>
      <trkpt lat="47.38852" lon="5.79178">
        <ele>226.527832</ele>
        <time>2009-10-27T14:27:37Z</time>
      </trkpt>
      <trkpt lat="47.38827" lon="5.79225">
        <ele>226.0471191</ele>
        <time>2009-10-27T14:27:45Z</time>
      </trkpt>
      <trkpt lat="47.38805" lon="5.79273">
        <ele>227.0085449</ele>
        <time>2009-10-27T14:27:53Z</time>
      </trkpt>
      <trkpt lat="47.38792" lon="5.79306">
        <ele>227.9697266</ele>
        <time>2009-10-27T14:28:05Z</time>
      </trkpt>
      <trkpt lat="47.38745" lon="5.79399">
        <ele>230.8537598</ele>
        <time>2009-10-27T14:28:18Z</time>
      </trkpt>
      <trkpt lat="47.3872" lon="5.79437">
        <ele>232.2957764</ele>
        <time>2009-10-27T14:28:30Z</time>
      </trkpt>
      <trkpt lat="47.38708" lon="5.79469">
        <ele>235.1796875</ele>
        <time>2009-10-27T14:28:42Z</time>
      </trkpt>
      <trkpt lat="47.38688" lon="5.79495">
        <ele>239.0249023</ele>
        <time>2009-10-27T14:28:56Z</time>
      </trkpt>
      <trkpt lat="47.38685" lon="5.79503">
        <ele>240.467041</ele>
        <time>2009-10-27T14:29:01Z</time>
      </trkpt>
      <trkpt lat="47.38677" lon="5.79511">
        <ele>240.9476318</ele>
        <time>2009-10-27T14:29:05Z</time>
      </trkpt>
      <trkpt lat="47.38675" lon="5.79524">
        <ele>242.3896484</ele>
        <time>2009-10-27T14:29:10Z</time>
      </trkpt>
      <trkpt lat="47.38674" lon="5.79531">
        <ele>242.8702393</ele>
        <time>2009-10-27T14:29:13Z</time>
      </trkpt>
      <trkpt lat="47.38672" lon="5.79539">
        <ele>243.831543</ele>
        <time>2009-10-27T14:29:16Z</time>
      </trkpt>
      <trkpt lat="47.38667" lon="5.79566">
        <ele>246.2348633</ele>
        <time>2009-10-27T14:29:28Z</time>
      </trkpt>
      <trkpt lat="47.38665" lon="5.79567">
        <ele>246.2348633</ele>
        <time>2009-10-27T14:29:29Z</time>
      </trkpt>
      <trkpt lat="47.3865" lon="5.79597">
        <ele>248.6381836</ele>
        <time>2009-10-27T14:29:43Z</time>
      </trkpt>
      <trkpt lat="47.38632" lon="5.79624">
        <ele>252.0028076</ele>
        <time>2009-10-27T14:29:58Z</time>
      </trkpt>
      <trkpt lat="47.38622" lon="5.79647">
        <ele>254.8865967</ele>
        <time>2009-10-27T14:30:11Z</time>
      </trkpt>
      <trkpt lat="47.38611" lon="5.79667">
        <ele>258.2513428</ele>
        <time>2009-10-27T14:30:34Z</time>
      </trkpt>
      <trkpt lat="47.386" lon="5.79683">
        <ele>260.654541</ele>
        <time>2009-10-27T14:30:44Z</time>
      </trkpt>
      <trkpt lat="47.386" lon="5.79695">
        <ele>261.1352539</ele>
        <time>2009-10-27T14:30:47Z</time>
      </trkpt>
      <trkpt lat="47.3859" lon="5.79705">
        <ele>262.0965576</ele>
        <time>2009-10-27T14:30:54Z</time>
      </trkpt>
      <trkpt lat="47.38585" lon="5.79712">
        <ele>262.5771484</ele>
        <time>2009-10-27T14:30:57Z</time>
      </trkpt>
      <trkpt lat="47.38563" lon="5.79721">
        <ele>264.9805908</ele>
        <time>2009-10-27T14:31:09Z</time>
      </trkpt>
      <trkpt lat="47.38558" lon="5.79721">
        <ele>264.9805908</ele>
        <time>2009-10-27T14:31:12Z</time>
      </trkpt>
      <trkpt lat="47.38549" lon="5.79722">
        <ele>265.4613037</ele>
        <time>2009-10-27T14:31:16Z</time>
      </trkpt>
      <trkpt lat="47.38526" lon="5.79738">
        <ele>266.4224854</ele>
        <time>2009-10-27T14:31:27Z</time>
      </trkpt>
      <trkpt lat="47.38524" lon="5.79739">
        <ele>266.9031982</ele>
        <time>2009-10-27T14:31:28Z</time>
      </trkpt>
      <trkpt lat="47.38505" lon="5.79756">
        <ele>268.8258057</ele>
        <time>2009-10-27T14:31:38Z</time>
      </trkpt>
      <trkpt lat="47.38479" lon="5.7978">
        <ele>271.7097168</ele>
        <time>2009-10-27T14:31:50Z</time>
      </trkpt>
      <trkpt lat="47.38457" lon="5.79804">
        <ele>274.1130371</ele>
        <time>2009-10-27T14:32:01Z</time>
      </trkpt>
      <trkpt lat="47.38452" lon="5.79807">
        <ele>274.59375</ele>
        <time>2009-10-27T14:32:03Z</time>
      </trkpt>
      <trkpt lat="47.38447" lon="5.79821">
        <ele>275.5550537</ele>
        <time>2009-10-27T14:32:07Z</time>
      </trkpt>
      <trkpt lat="47.38436" lon="5.79857">
        <ele>278.4389648</ele>
        <time>2009-10-27T14:32:21Z</time>
      </trkpt>
      <trkpt lat="47.38435" lon="5.79859">
        <ele>278.9196777</ele>
        <time>2009-10-27T14:32:22Z</time>
      </trkpt>
      <trkpt lat="47.38415" lon="5.79893">
        <ele>281.322998</ele>
        <time>2009-10-27T14:32:35Z</time>
      </trkpt>
      <trkpt lat="47.38403" lon="5.79909">
        <ele>282.7650146</ele>
        <time>2009-10-27T14:32:41Z</time>
      </trkpt>
      <trkpt lat="47.38399" lon="5.79918">
        <ele>283.7261963</ele>
        <time>2009-10-27T14:32:44Z</time>
      </trkpt>
      <trkpt lat="47.38397" lon="5.79931">
        <ele>284.6876221</ele>
        <time>2009-10-27T14:32:49Z</time>
      </trkpt>
      <trkpt lat="47.38399" lon="5.7994">
        <ele>285.6488037</ele>
        <time>2009-10-27T14:32:51Z</time>
      </trkpt>
      <trkpt lat="47.38375" lon="5.79938">
        <ele>285.6488037</ele>
        <time>2009-10-27T14:33:02Z</time>
      </trkpt>
      <trkpt lat="47.38371" lon="5.79935">
        <ele>285.6488037</ele>
        <time>2009-10-27T14:33:03Z</time>
      </trkpt>
      <trkpt lat="47.38341" lon="5.79914">
        <ele>285.6488037</ele>
        <time>2009-10-27T14:33:13Z</time>
      </trkpt>
      <trkpt lat="47.38311" lon="5.79887">
        <ele>286.6102295</ele>
        <time>2009-10-27T14:33:23Z</time>
      </trkpt>
      <trkpt lat="47.38309" lon="5.79885">
        <ele>286.6102295</ele>
        <time>2009-10-27T14:33:25Z</time>
      </trkpt>
      <trkpt lat="47.38296" lon="5.79878">
        <ele>286.6102295</ele>
        <time>2009-10-27T14:33:30Z</time>
      </trkpt>
      <trkpt lat="47.38269" lon="5.79857">
        <ele>289.0135498</ele>
        <time>2009-10-27T14:33:40Z</time>
      </trkpt>
      <trkpt lat="47.38241" lon="5.7983">
        <ele>291.416748</ele>
        <time>2009-10-27T14:33:52Z</time>
      </trkpt>
      <trkpt lat="47.38218" lon="5.7981">
        <ele>293.8200684</ele>
        <time>2009-10-27T14:34:03Z</time>
      </trkpt>
      <trkpt lat="47.38205" lon="5.79802">
        <ele>295.7426758</ele>
        <time>2009-10-27T14:34:07Z</time>
      </trkpt>
      <trkpt lat="47.38182" lon="5.79786">
        <ele>298.626709</ele>
        <time>2009-10-27T14:34:20Z</time>
      </trkpt>
      <trkpt lat="47.38179" lon="5.79786">
        <ele>299.1072998</ele>
        <time>2009-10-27T14:34:21Z</time>
      </trkpt>
      <trkpt lat="47.38149" lon="5.79764">
        <ele>301.5106201</ele>
        <time>2009-10-27T14:34:34Z</time>
      </trkpt>
      <trkpt lat="47.38145" lon="5.79759">
        <ele>301.991333</ele>
        <time>2009-10-27T14:34:38Z</time>
      </trkpt>
      <trkpt lat="47.3811" lon="5.79727">
        <ele>300.0687256</ele>
        <time>2009-10-27T14:34:49Z</time>
      </trkpt>
      <trkpt lat="47.38096" lon="5.79717">
        <ele>299.1072998</ele>
        <time>2009-10-27T14:34:52Z</time>
      </trkpt>
      <trkpt lat="47.3806" lon="5.79692">
        <ele>296.2235107</ele>
        <time>2009-10-27T14:34:58Z</time>
      </trkpt>
      <trkpt lat="47.38022" lon="5.79669">
        <ele>292.8587646</ele>
        <time>2009-10-27T14:35:03Z</time>
      </trkpt>
      <trkpt lat="47.37988" lon="5.79644">
        <ele>289.4941406</ele>
        <time>2009-10-27T14:35:07Z</time>
      </trkpt>
      <trkpt lat="47.37936" lon="5.79601">
        <ele>286.1295166</ele>
        <time>2009-10-27T14:35:13Z</time>
      </trkpt>
      <trkpt lat="47.37874" lon="5.79534">
        <ele>283.7261963</ele>
        <time>2009-10-27T14:35:21Z</time>
      </trkpt>
      <trkpt lat="47.37852" lon="5.79514">
        <ele>282.2843018</ele>
        <time>2009-10-27T14:35:24Z</time>
      </trkpt>
      <trkpt lat="47.37824" lon="5.79483">
        <ele>281.8035889</ele>
        <time>2009-10-27T14:35:28Z</time>
      </trkpt>
      <trkpt lat="47.37802" lon="5.79461">
        <ele>281.322998</ele>
        <time>2009-10-27T14:35:31Z</time>
      </trkpt>
      <trkpt lat="47.37736" lon="5.79422">
        <ele>277.958252</ele>
        <time>2009-10-27T14:35:39Z</time>
      </trkpt>
      <trkpt lat="47.37703" lon="5.79405">
        <ele>276.5163574</ele>
        <time>2009-10-27T14:35:43Z</time>
      </trkpt>
      <trkpt lat="47.37646" lon="5.79368">
        <ele>274.1130371</ele>
        <time>2009-10-27T14:35:50Z</time>
      </trkpt>
      <trkpt lat="47.37593" lon="5.79336">
        <ele>271.229126</ele>
        <time>2009-10-27T14:35:57Z</time>
      </trkpt>
      <trkpt lat="47.37581" lon="5.7933">
        <ele>270.7484131</ele>
        <time>2009-10-27T14:35:59Z</time>
      </trkpt>
      <trkpt lat="47.37545" lon="5.79316">
        <ele>267.864502</ele>
        <time>2009-10-27T14:36:04Z</time>
      </trkpt>
      <trkpt lat="47.37516" lon="5.79311">
        <ele>266.9031982</ele>
        <time>2009-10-27T14:36:11Z</time>
      </trkpt>
      <trkpt lat="47.37507" lon="5.79336">
        <ele>264.9805908</ele>
        <time>2009-10-27T14:36:15Z</time>
      </trkpt>
      <trkpt lat="47.37447" lon="5.79413">
        <ele>263.5385742</ele>
        <time>2009-10-27T14:36:27Z</time>
      </trkpt>
      <trkpt lat="47.37413" lon="5.7945">
        <ele>264.4998779</ele>
        <time>2009-10-27T14:36:34Z</time>
      </trkpt>
      <trkpt lat="47.37374" lon="5.79493">
        <ele>267.3839111</ele>
        <time>2009-10-27T14:36:47Z</time>
      </trkpt>
      <trkpt lat="47.37341" lon="5.79529">
        <ele>267.3839111</ele>
        <time>2009-10-27T14:36:57Z</time>
      </trkpt>
      <trkpt lat="47.37303" lon="5.7957">
        <ele>267.3839111</ele>
        <time>2009-10-27T14:37:07Z</time>
      </trkpt>
      <trkpt lat="47.37255" lon="5.79625">
        <ele>266.9031982</ele>
        <time>2009-10-27T14:37:19Z</time>
      </trkpt>
      <trkpt lat="47.37248" lon="5.79633">
        <ele>266.9031982</ele>
        <time>2009-10-27T14:37:22Z</time>
      </trkpt>
      <trkpt lat="47.3726" lon="5.79647">
        <ele>269.3065186</ele>
        <time>2009-10-27T14:37:31Z</time>
      </trkpt>
      <trkpt lat="47.37268" lon="5.79646">
        <ele>269.7871094</ele>
        <time>2009-10-27T14:37:34Z</time>
      </trkpt>
      <trkpt lat="47.37293" lon="5.79643">
        <ele>272.6711426</ele>
        <time>2009-10-27T14:37:45Z</time>
      </trkpt>
      <trkpt lat="47.37324" lon="5.79634">
        <ele>275.5550537</ele>
        <time>2009-10-27T14:37:58Z</time>
      </trkpt>
      <trkpt lat="47.37352" lon="5.79625">
        <ele>277.958252</ele>
        <time>2009-10-27T14:38:09Z</time>
      </trkpt>
      <trkpt lat="47.37371" lon="5.79619">
        <ele>280.3616943</ele>
        <time>2009-10-27T14:38:20Z</time>
      </trkpt>
      <trkpt lat="47.37388" lon="5.79626">
        <ele>282.2843018</ele>
        <time>2009-10-27T14:38:31Z</time>
      </trkpt>
      <trkpt lat="47.37409" lon="5.79635">
        <ele>285.6488037</ele>
        <time>2009-10-27T14:38:43Z</time>
      </trkpt>
      <trkpt lat="47.3742" lon="5.79641">
        <ele>287.0908203</ele>
        <time>2009-10-27T14:38:50Z</time>
      </trkpt>
      <trkpt lat="47.37432" lon="5.79641">
        <ele>288.532959</ele>
        <time>2009-10-27T14:38:56Z</time>
      </trkpt>
      <trkpt lat="47.37436" lon="5.79643">
        <ele>289.4941406</ele>
        <time>2009-10-27T14:39:00Z</time>
      </trkpt>
      <trkpt lat="47.37463" lon="5.79652">
        <ele>292.3781738</ele>
        <time>2009-10-27T14:39:15Z</time>
      </trkpt>
      <trkpt lat="47.37471" lon="5.79655">
        <ele>293.8200684</ele>
        <time>2009-10-27T14:39:21Z</time>
      </trkpt>
      <trkpt lat="47.37485" lon="5.79659">
        <ele>295.7426758</ele>
        <time>2009-10-27T14:39:29Z</time>
      </trkpt>
      <trkpt lat="47.37493" lon="5.79662">
        <ele>296.2235107</ele>
        <time>2009-10-27T14:39:34Z</time>
      </trkpt>
      <trkpt lat="47.37513" lon="5.79672">
        <ele>299.1072998</ele>
        <time>2009-10-27T14:39:47Z</time>
      </trkpt>
      <trkpt lat="47.37534" lon="5.79683">
        <ele>301.991333</ele>
        <time>2009-10-27T14:40:02Z</time>
      </trkpt>
      <trkpt lat="47.37542" lon="5.79689">
        <ele>302.4719238</ele>
        <time>2009-10-27T14:40:07Z</time>
      </trkpt>
      <trkpt lat="47.37554" lon="5.797">
        <ele>303.9139404</ele>
        <time>2009-10-27T14:40:15Z</time>
      </trkpt>
      <trkpt lat="47.37574" lon="5.79721">
        <ele>306.7978516</ele>
        <time>2009-10-27T14:40:29Z</time>
      </trkpt>
      <trkpt lat="47.37596" lon="5.7974">
        <ele>309.2011719</ele>
        <time>2009-10-27T14:40:43Z</time>
      </trkpt>
      <trkpt lat="47.37621" lon="5.79765">
        <ele>311.6044922</ele>
        <time>2009-10-27T14:40:57Z</time>
      </trkpt>
      <trkpt lat="47.37646" lon="5.79784">
        <ele>313.5272217</ele>
        <time>2009-10-27T14:41:09Z</time>
      </trkpt>
      <trkpt lat="47.37676" lon="5.79809">
        <ele>314.9691162</ele>
        <time>2009-10-27T14:41:22Z</time>
      </trkpt>
      <trkpt lat="47.37718" lon="5.79843">
        <ele>316.8917236</ele>
        <time>2009-10-27T14:41:39Z</time>
      </trkpt>
      <trkpt lat="47.37747" lon="5.79867">
        <ele>318.8143311</ele>
        <time>2009-10-27T14:41:51Z</time>
      </trkpt>
      <trkpt lat="47.37783" lon="5.79898">
        <ele>321.2177734</ele>
        <time>2009-10-27T14:42:06Z</time>
      </trkpt>
      <trkpt lat="47.37814" lon="5.79925">
        <ele>323.6209717</ele>
        <time>2009-10-27T14:42:20Z</time>
      </trkpt>
      <trkpt lat="47.37853" lon="5.79956">
        <ele>325.5435791</ele>
        <time>2009-10-27T14:42:35Z</time>
      </trkpt>
      <trkpt lat="47.3789" lon="5.79989">
        <ele>328.4276123</ele>
        <time>2009-10-27T14:42:51Z</time>
      </trkpt>
      <trkpt lat="47.37921" lon="5.80014">
        <ele>329.8695068</ele>
        <time>2009-10-27T14:43:04Z</time>
      </trkpt>
      <trkpt lat="47.37948" lon="5.80039">
        <ele>331.7921143</ele>
        <time>2009-10-27T14:43:16Z</time>
      </trkpt>
      <trkpt lat="47.37981" lon="5.80073">
        <ele>333.7147217</ele>
        <time>2009-10-27T14:43:31Z</time>
      </trkpt>
      <trkpt lat="47.3801" lon="5.80095">
        <ele>335.1567383</ele>
        <time>2009-10-27T14:43:43Z</time>
      </trkpt>
      <trkpt lat="47.38042" lon="5.80118">
        <ele>336.1181641</ele>
        <time>2009-10-27T14:43:54Z</time>
      </trkpt>
      <trkpt lat="47.3808" lon="5.80146">
        <ele>337.5600586</ele>
        <time>2009-10-27T14:44:08Z</time>
      </trkpt>
      <trkpt lat="47.38116" lon="5.80177">
        <ele>339.482666</ele>
        <time>2009-10-27T14:44:21Z</time>
      </trkpt>
      <trkpt lat="47.38155" lon="5.80215">
        <ele>339.9633789</ele>
        <time>2009-10-27T14:44:35Z</time>
      </trkpt>
      <trkpt lat="47.38191" lon="5.80251">
        <ele>341.8859863</ele>
        <time>2009-10-27T14:44:47Z</time>
      </trkpt>
      <trkpt lat="47.38209" lon="5.80261">
        <ele>341.4052734</ele>
        <time>2009-10-27T14:44:52Z</time>
      </trkpt>
      <trkpt lat="47.38231" lon="5.80283">
        <ele>341.4052734</ele>
        <time>2009-10-27T14:44:58Z</time>
      </trkpt>
      <trkpt lat="47.38259" lon="5.8031">
        <ele>341.4052734</ele>
        <time>2009-10-27T14:45:05Z</time>
      </trkpt>
      <trkpt lat="47.38307" lon="5.80357">
        <ele>340.9246826</ele>
        <time>2009-10-27T14:45:18Z</time>
      </trkpt>
      <trkpt lat="47.38361" lon="5.80409">
        <ele>340.9246826</ele>
        <time>2009-10-27T14:45:32Z</time>
      </trkpt>
      <trkpt lat="47.38401" lon="5.80449">
        <ele>340.9246826</ele>
        <time>2009-10-27T14:45:44Z</time>
      </trkpt>
      <trkpt lat="47.38424" lon="5.80471">
        <ele>340.9246826</ele>
        <time>2009-10-27T14:45:51Z</time>
      </trkpt>
      <trkpt lat="47.38452" lon="5.80499">
        <ele>339.9633789</ele>
        <time>2009-10-27T14:45:58Z</time>
      </trkpt>
      <trkpt lat="47.38496" lon="5.80544">
        <ele>337.5600586</ele>
        <time>2009-10-27T14:46:09Z</time>
      </trkpt>
      <trkpt lat="47.38512" lon="5.80569">
        <ele>336.1181641</ele>
        <time>2009-10-27T14:46:13Z</time>
      </trkpt>
      <trkpt lat="47.3853" lon="5.80603">
        <ele>334.6761475</ele>
        <time>2009-10-27T14:46:18Z</time>
      </trkpt>
      <trkpt lat="47.38546" lon="5.80631">
        <ele>332.2728271</ele>
        <time>2009-10-27T14:46:23Z</time>
      </trkpt>
      <trkpt lat="47.38558" lon="5.80653">
        <ele>329.8695068</ele>
        <time>2009-10-27T14:46:27Z</time>
      </trkpt>
      <trkpt lat="47.38569" lon="5.80673">
        <ele>328.4276123</ele>
        <time>2009-10-27T14:46:30Z</time>
      </trkpt>
      <trkpt lat="47.38573" lon="5.80679">
        <ele>327.9467773</ele>
        <time>2009-10-27T14:46:31Z</time>
      </trkpt>
      <trkpt lat="47.38581" lon="5.80693">
        <ele>326.9855957</ele>
        <time>2009-10-27T14:46:33Z</time>
      </trkpt>
      <trkpt lat="47.38591" lon="5.8071">
        <ele>325.5435791</ele>
        <time>2009-10-27T14:46:36Z</time>
      </trkpt>
      <trkpt lat="47.38597" lon="5.80722">
        <ele>324.5822754</ele>
        <time>2009-10-27T14:46:38Z</time>
      </trkpt>
      <trkpt lat="47.38606" lon="5.8074">
        <ele>324.1015625</ele>
        <time>2009-10-27T14:46:41Z</time>
      </trkpt>
      <trkpt lat="47.38615" lon="5.80756">
        <ele>323.1403809</ele>
        <time>2009-10-27T14:46:43Z</time>
      </trkpt>
      <trkpt lat="47.38646" lon="5.80799">
        <ele>323.1403809</ele>
        <time>2009-10-27T14:46:50Z</time>
      </trkpt>
      <trkpt lat="47.38654" lon="5.80808">
        <ele>324.5822754</ele>
        <time>2009-10-27T14:46:52Z</time>
      </trkpt>
      <trkpt lat="47.38692" lon="5.80833">
        <ele>324.1015625</ele>
        <time>2009-10-27T14:47:02Z</time>
      </trkpt>
      <trkpt lat="47.38709" lon="5.80837">
        <ele>323.1403809</ele>
        <time>2009-10-27T14:47:06Z</time>
      </trkpt>
      <trkpt lat="47.38723" lon="5.8084">
        <ele>323.6209717</ele>
        <time>2009-10-27T14:47:09Z</time>
      </trkpt>
      <trkpt lat="47.3874" lon="5.80843">
        <ele>323.1403809</ele>
        <time>2009-10-27T14:47:12Z</time>
      </trkpt>
      <trkpt lat="47.38753" lon="5.80845">
        <ele>323.1403809</ele>
        <time>2009-10-27T14:47:14Z</time>
      </trkpt>
      <trkpt lat="47.38806" lon="5.8086">
        <ele>321.6983643</ele>
        <time>2009-10-27T14:47:23Z</time>
      </trkpt>
      <trkpt lat="47.38828" lon="5.80867">
        <ele>321.6983643</ele>
        <time>2009-10-27T14:47:27Z</time>
      </trkpt>
      <trkpt lat="47.38843" lon="5.80871">
        <ele>321.6983643</ele>
        <time>2009-10-27T14:47:30Z</time>
      </trkpt>
      <trkpt lat="47.38886" lon="5.80883">
        <ele>323.1403809</ele>
        <time>2009-10-27T14:47:39Z</time>
      </trkpt>
      <trkpt lat="47.38909" lon="5.80889">
        <ele>324.1015625</ele>
        <time>2009-10-27T14:47:44Z</time>
      </trkpt>
      <trkpt lat="47.38962" lon="5.80903">
        <ele>326.0241699</ele>
        <time>2009-10-27T14:47:57Z</time>
      </trkpt>
      <trkpt lat="47.38999" lon="5.80913">
        <ele>327.9467773</ele>
        <time>2009-10-27T14:48:08Z</time>
      </trkpt>
      <trkpt lat="47.39042" lon="5.80924">
        <ele>330.3502197</ele>
        <time>2009-10-27T14:48:19Z</time>
      </trkpt>
      <trkpt lat="47.3908" lon="5.81074">
        <ele>332.75354</ele>
        <time>2009-10-27T14:48:33Z</time>
      </trkpt>
      <trkpt lat="47.3911" lon="5.81107">
        <ele>334.1954346</ele>
        <time>2009-10-27T14:48:44Z</time>
      </trkpt>
      <trkpt lat="47.39134" lon="5.81149">
        <ele>335.1567383</ele>
        <time>2009-10-27T14:48:56Z</time>
      </trkpt>
      <trkpt lat="47.39149" lon="5.81193">
        <ele>336.1181641</ele>
        <time>2009-10-27T14:49:07Z</time>
      </trkpt>
      <trkpt lat="47.39153" lon="5.812">
        <ele>336.1181641</ele>
        <time>2009-10-27T14:49:10Z</time>
      </trkpt>
      <trkpt lat="47.3916" lon="5.81216">
        <ele>336.598877</ele>
        <time>2009-10-27T14:49:14Z</time>
      </trkpt>
      <trkpt lat="47.39183" lon="5.81257">
        <ele>337.0794678</ele>
        <time>2009-10-27T14:49:24Z</time>
      </trkpt>
      <trkpt lat="47.39201" lon="5.81287">
        <ele>337.5600586</ele>
        <time>2009-10-27T14:49:31Z</time>
      </trkpt>
      <trkpt lat="47.39225" lon="5.81318">
        <ele>338.0407715</ele>
        <time>2009-10-27T14:49:37Z</time>
      </trkpt>
      <trkpt lat="47.39246" lon="5.81359">
        <ele>337.0794678</ele>
        <time>2009-10-27T14:49:47Z</time>
      </trkpt>
      <trkpt lat="47.39255" lon="5.81375">
        <ele>338.5214844</ele>
        <time>2009-10-27T14:49:50Z</time>
      </trkpt>
      <trkpt lat="47.39272" lon="5.81406">
        <ele>338.5214844</ele>
        <time>2009-10-27T14:49:56Z</time>
      </trkpt>
      <trkpt lat="47.39303" lon="5.81465">
        <ele>339.482666</ele>
        <time>2009-10-27T14:50:08Z</time>
      </trkpt>
      <trkpt lat="47.39332" lon="5.81518">
        <ele>340.4440918</ele>
        <time>2009-10-27T14:50:18Z</time>
      </trkpt>
      <trkpt lat="47.39342" lon="5.81536">
        <ele>341.8859863</ele>
        <time>2009-10-27T14:50:23Z</time>
      </trkpt>
      <trkpt lat="47.39361" lon="5.81572">
        <ele>342.84729</ele>
        <time>2009-10-27T14:50:32Z</time>
      </trkpt>
      <trkpt lat="47.39382" lon="5.81611">
        <ele>344.7700195</ele>
        <time>2009-10-27T14:50:42Z</time>
      </trkpt>
      <trkpt lat="47.39407" lon="5.81646">
        <ele>345.2506104</ele>
        <time>2009-10-27T14:50:53Z</time>
      </trkpt>
      <trkpt lat="47.39444" lon="5.81666">
        <ele>344.7700195</ele>
        <time>2009-10-27T14:51:04Z</time>
      </trkpt>
      <trkpt lat="47.39451" lon="5.81669">
        <ele>344.7700195</ele>
        <time>2009-10-27T14:51:06Z</time>
      </trkpt>
      <trkpt lat="47.39491" lon="5.81693">
        <ele>345.2506104</ele>
        <time>2009-10-27T14:51:16Z</time>
      </trkpt>
      <trkpt lat="47.39518" lon="5.8171">
        <ele>346.692627</ele>
        <time>2009-10-27T14:51:25Z</time>
      </trkpt>
      <trkpt lat="47.3952" lon="5.81712">
        <ele>347.1732178</ele>
        <time>2009-10-27T14:51:26Z</time>
      </trkpt>
      <trkpt lat="47.39534" lon="5.81721">
        <ele>348.6152344</ele>
        <time>2009-10-27T14:51:32Z</time>
      </trkpt>
      <trkpt lat="47.39553" lon="5.81732">
        <ele>352.4605713</ele>
        <time>2009-10-27T14:51:43Z</time>
      </trkpt>
      <trkpt lat="47.39553" lon="5.81732">
        <ele>352.4605713</ele>
        <time>2009-10-27T14:51:44Z</time>
      </trkpt>
      <trkpt lat="47.39577" lon="5.81752">
        <ele>354.3831787</ele>
        <time>2009-10-27T14:51:50Z</time>
      </trkpt>
      <trkpt lat="47.39598" lon="5.81784">
        <ele>356.3057861</ele>
        <time>2009-10-27T14:52:02Z</time>
      </trkpt>
      <trkpt lat="47.39631" lon="5.81837">
        <ele>357.7478027</ele>
        <time>2009-10-27T14:52:13Z</time>
      </trkpt>
      <trkpt lat="47.39651" lon="5.8187">
        <ele>358.7089844</ele>
        <time>2009-10-27T14:52:23Z</time>
      </trkpt>
      <trkpt lat="47.39677" lon="5.81901">
        <ele>358.2283936</ele>
        <time>2009-10-27T14:52:31Z</time>
      </trkpt>
      <trkpt lat="47.39694" lon="5.81895">
        <ele>356.3057861</ele>
        <time>2009-10-27T14:52:37Z</time>
      </trkpt>
      <trkpt lat="47.39726" lon="5.8189">
        <ele>351.9798584</ele>
        <time>2009-10-27T14:52:44Z</time>
      </trkpt>
      <trkpt lat="47.39744" lon="5.81887">
        <ele>349.0958252</ele>
        <time>2009-10-27T14:52:47Z</time>
      </trkpt>
      <trkpt lat="47.39777" lon="5.81883">
        <ele>344.2894287</ele>
        <time>2009-10-27T14:52:52Z</time>
      </trkpt>
      <trkpt lat="47.39788" lon="5.81881">
        <ele>342.84729</ele>
        <time>2009-10-27T14:52:54Z</time>
      </trkpt>
      <trkpt lat="47.39813" lon="5.81882">
        <ele>338.5214844</ele>
        <time>2009-10-27T14:52:58Z</time>
      </trkpt>
      <trkpt lat="47.39831" lon="5.81883">
        <ele>336.1181641</ele>
        <time>2009-10-27T14:53:01Z</time>
      </trkpt>
      <trkpt lat="47.39848" lon="5.81885">
        <ele>332.75354</ele>
        <time>2009-10-27T14:53:05Z</time>
      </trkpt>
      <trkpt lat="47.3988" lon="5.81887">
        <ele>328.9083252</ele>
        <time>2009-10-27T14:53:10Z</time>
      </trkpt>
      <trkpt lat="47.39884" lon="5.81887">
        <ele>328.4276123</ele>
        <time>2009-10-27T14:53:11Z</time>
      </trkpt>
      <trkpt lat="47.39902" lon="5.81888">
        <ele>326.9855957</ele>
        <time>2009-10-27T14:53:14Z</time>
      </trkpt>
      <trkpt lat="47.39918" lon="5.8189">
        <ele>326.0241699</ele>
        <time>2009-10-27T14:53:19Z</time>
      </trkpt>
      <trkpt lat="47.39943" lon="5.81889">
        <ele>323.1403809</ele>
        <time>2009-10-27T14:53:26Z</time>
      </trkpt>
      <trkpt lat="47.39958" lon="5.81846">
        <ele>319.2950439</ele>
        <time>2009-10-27T14:53:31Z</time>
      </trkpt>
      <trkpt lat="47.3998" lon="5.81805">
        <ele>315.4498291</ele>
        <time>2009-10-27T14:53:35Z</time>
      </trkpt>
      <trkpt lat="47.40008" lon="5.81769">
        <ele>311.1237793</ele>
        <time>2009-10-27T14:53:40Z</time>
      </trkpt>
      <trkpt lat="47.40029" lon="5.81741">
        <ele>307.7592773</ele>
        <time>2009-10-27T14:53:44Z</time>
      </trkpt>
      <trkpt lat="47.40035" lon="5.81733">
        <ele>306.7978516</ele>
        <time>2009-10-27T14:53:45Z</time>
      </trkpt>
      <trkpt lat="47.40057" lon="5.81711">
        <ele>304.8752441</ele>
        <time>2009-10-27T14:53:49Z</time>
      </trkpt>
      <trkpt lat="47.40073" lon="5.81685">
        <ele>302.9525146</ele>
        <time>2009-10-27T14:53:53Z</time>
      </trkpt>
      <trkpt lat="47.40086" lon="5.81658">
        <ele>301.0299072</ele>
        <time>2009-10-27T14:53:56Z</time>
      </trkpt>
      <trkpt lat="47.4011" lon="5.81636">
        <ele>299.1072998</ele>
        <time>2009-10-27T14:54:01Z</time>
      </trkpt>
      <trkpt lat="47.40134" lon="5.81615">
        <ele>295.2619629</ele>
        <time>2009-10-27T14:54:10Z</time>
      </trkpt>
      <trkpt lat="47.40139" lon="5.81611">
        <ele>294.7813721</ele>
        <time>2009-10-27T14:54:11Z</time>
      </trkpt>
      <trkpt lat="47.40161" lon="5.8159">
        <ele>291.416748</ele>
        <time>2009-10-27T14:54:15Z</time>
      </trkpt>
      <trkpt lat="47.40173" lon="5.81577">
        <ele>289.9748535</ele>
        <time>2009-10-27T14:54:17Z</time>
      </trkpt>
      <trkpt lat="47.40189" lon="5.81555">
        <ele>287.0908203</ele>
        <time>2009-10-27T14:54:20Z</time>
      </trkpt>
      <trkpt lat="47.40202" lon="5.81529">
        <ele>284.2069092</ele>
        <time>2009-10-27T14:54:23Z</time>
      </trkpt>
      <trkpt lat="47.40228" lon="5.81482">
        <ele>279.8808594</ele>
        <time>2009-10-27T14:54:28Z</time>
      </trkpt>
      <trkpt lat="47.4024" lon="5.81455">
        <ele>276.9970703</ele>
        <time>2009-10-27T14:54:31Z</time>
      </trkpt>
      <trkpt lat="47.4026" lon="5.81403">
        <ele>273.1518555</ele>
        <time>2009-10-27T14:54:37Z</time>
      </trkpt>
      <trkpt lat="47.40282" lon="5.8138">
        <ele>269.3065186</ele>
        <time>2009-10-27T14:54:42Z</time>
      </trkpt>
      <trkpt lat="47.4029" lon="5.81372">
        <ele>268.3450928</ele>
        <time>2009-10-27T14:54:44Z</time>
      </trkpt>
      <trkpt lat="47.40305" lon="5.81348">
        <ele>265.9418945</ele>
        <time>2009-10-27T14:54:50Z</time>
      </trkpt>
      <trkpt lat="47.40296" lon="5.81329">
        <ele>265.4613037</ele>
        <time>2009-10-27T14:54:55Z</time>
      </trkpt>
      <trkpt lat="47.40281" lon="5.81304">
        <ele>264.4998779</ele>
        <time>2009-10-27T14:55:02Z</time>
      </trkpt>
      <trkpt lat="47.40289" lon="5.81272">
        <ele>260.654541</ele>
        <time>2009-10-27T14:55:07Z</time>
      </trkpt>
      <trkpt lat="47.40295" lon="5.81267">
        <ele>262.0965576</ele>
        <time>2009-10-27T14:55:08Z</time>
      </trkpt>
      <trkpt lat="47.403" lon="5.81263">
        <ele>261.6159668</ele>
        <time>2009-10-27T14:55:09Z</time>
      </trkpt>
      <trkpt lat="47.40375" lon="5.8119">
        <ele>259.2126465</ele>
        <time>2009-10-27T14:55:22Z</time>
      </trkpt>
      <trkpt lat="47.4038" lon="5.81186">
        <ele>259.6933594</ele>
        <time>2009-10-27T14:55:23Z</time>
      </trkpt>
      <trkpt lat="47.40378" lon="5.81197">
        <ele>259.2126465</ele>
        <time>2009-10-27T14:55:27Z</time>
      </trkpt>
      <trkpt lat="47.40387" lon="5.81218">
        <ele>259.2126465</ele>
        <time>2009-10-27T14:55:32Z</time>
      </trkpt>
      <trkpt lat="47.40392" lon="5.81267">
        <ele>258.7319336</ele>
        <time>2009-10-27T14:55:38Z</time>
      </trkpt>
      <trkpt lat="47.40435" lon="5.812">
        <ele>256.8093262</ele>
        <time>2009-10-27T14:55:43Z</time>
      </trkpt>
      <trkpt lat="47.40438" lon="5.81206">
        <ele>255.3673096</ele>
        <time>2009-10-27T14:55:46Z</time>
      </trkpt>
      <trkpt lat="47.40439" lon="5.81208">
        <ele>254.8865967</ele>
        <time>2009-10-27T14:55:47Z</time>
      </trkpt>
      <trkpt lat="47.4046" lon="5.81187">
        <ele>251.0413818</ele>
        <time>2009-10-27T14:55:54Z</time>
      </trkpt>
      <trkpt lat="47.40457" lon="5.81164">
        <ele>249.1187744</ele>
        <time>2009-10-27T14:55:58Z</time>
      </trkpt>
      <trkpt lat="47.40457" lon="5.81157">
        <ele>245.7541504</ele>
        <time>2009-10-27T14:56:04Z</time>
      </trkpt>
      <trkpt lat="47.40476" lon="5.81054">
        <ele>245.2734375</ele>
        <time>2009-10-27T14:56:05Z</time>
      </trkpt>
      <trkpt lat="47.40464" lon="5.81036">
        <ele>243.831543</ele>
        <time>2009-10-27T14:56:11Z</time>
      </trkpt>
      <trkpt lat="47.40463" lon="5.81035">
        <ele>240.467041</ele>
        <time>2009-10-27T14:56:24Z</time>
      </trkpt>
      <trkpt lat="47.40463" lon="5.81035">
        <ele>239.9862061</ele>
        <time>2009-10-27T14:56:25Z</time>
      </trkpt>
      <trkpt lat="47.40463" lon="5.81035">
        <ele>238.5443115</ele>
        <time>2009-10-27T14:56:30Z</time>
      </trkpt>
      <trkpt lat="47.40463" lon="5.81035">
        <ele>237.1022949</ele>
        <time>2009-10-27T14:56:35Z</time>
      </trkpt>
      <trkpt lat="47.4047" lon="5.81046">
        <ele>235.6602783</ele>
        <time>2009-10-27T14:56:39Z</time>
      </trkpt>
      <trkpt lat="47.4047" lon="5.81046">
        <ele>234.2183838</ele>
        <time>2009-10-27T14:56:43Z</time>
      </trkpt>
      <trkpt lat="47.40442" lon="5.80998">
        <ele>233.2570801</ele>
        <time>2009-10-27T14:56:48Z</time>
      </trkpt>
      <trkpt lat="47.40401" lon="5.80927">
        <ele>234.6990967</ele>
        <time>2009-10-27T14:56:59Z</time>
      </trkpt>
      <trkpt lat="47.40394" lon="5.80915">
        <ele>234.6990967</ele>
        <time>2009-10-27T14:57:01Z</time>
      </trkpt>
      <trkpt lat="47.40403" lon="5.80877">
        <ele>232.7764893</ele>
        <time>2009-10-27T14:57:08Z</time>
      </trkpt>
      <trkpt lat="47.40408" lon="5.80871">
        <ele>232.7764893</ele>
        <time>2009-10-27T14:57:09Z</time>
      </trkpt>
      <trkpt lat="47.40412" lon="5.80866">
        <ele>232.7764893</ele>
        <time>2009-10-27T14:57:10Z</time>
      </trkpt>
      <trkpt lat="47.40455" lon="5.80763">
        <ele>229.4117432</ele>
        <time>2009-10-27T14:57:17Z</time>
      </trkpt>
      <trkpt lat="47.40455" lon="5.80763">
        <ele>228.9311523</ele>
        <time>2009-10-27T14:57:19Z</time>
      </trkpt>
      <trkpt lat="47.40467" lon="5.80739">
        <ele>227.0085449</ele>
        <time>2009-10-27T14:57:48Z</time>
      </trkpt>
      <trkpt lat="47.40563" lon="5.80769">
        <ele>224.1245117</ele>
        <time>2009-10-27T14:58:06Z</time>
      </trkpt>
      <trkpt lat="47.40607" lon="5.8071">
        <ele>223.6437988</ele>
        <time>2009-10-27T14:58:17Z</time>
      </trkpt>
    </trkseg>
  </trk>
</gpx>